createdAt,value
2018-10-01T00:01:48.409Z,11.23
2018-10-01T00:04:16.556Z,11.26
2018-10-01T00:06:44.689Z,11.30
2018-10-01T00:09:12.797Z,11.40
2018-10-01T00:11:40.925Z,11.48
2018-10-01T00:14:09.076Z,11.50
2018-10-01T00:16:37.181Z,11.53
2018-10-01T00:19:09.564Z,11.55
2018-10-01T00:21:42.988Z,11.55
2018-10-01T00:24:11.145Z,11.54
2018-10-01T00:26:39.280Z,11.59
2018-10-01T00:29:07.401Z,11.68
2018-10-01T00:31:35.537Z,11.73
2018-10-01T00:34:03.673Z,11.74
2018-10-01T00:36:31.781Z,11.63
2018-10-01T00:38:59.920Z,11.65
2018-10-01T00:41:28.048Z,11.66
2018-10-01T00:43:56.172Z,11.72
2018-10-01T00:46:24.278Z,11.77
2018-10-01T00:48:52.406Z,11.74
2018-10-01T00:51:20.508Z,11.74
2018-10-01T00:53:49.748Z,11.71
2018-10-01T00:56:17.870Z,11.71
2018-10-01T00:58:45.945Z,11.71
2018-10-01T01:01:14.031Z,11.69
2018-10-01T01:03:42.215Z,11.71
2018-10-01T01:06:10.315Z,11.64
2018-10-01T01:08:38.461Z,11.57
2018-10-01T01:11:06.539Z,11.51
2018-10-01T01:13:34.630Z,11.55
2018-10-01T01:16:02.699Z,11.53
2018-10-01T01:18:30.910Z,11.50
2018-10-01T01:20:58.992Z,11.45
2018-10-01T01:23:27.099Z,11.35
2018-10-01T01:25:55.278Z,11.39
2018-10-01T01:28:23.380Z,11.42
2018-10-01T01:30:51.519Z,11.44
2018-10-01T01:33:19.614Z,11.40
2018-10-01T01:35:47.706Z,11.21
2018-10-01T01:38:15.800Z,11.22
2018-10-01T01:40:43.884Z,11.13
2018-10-01T01:43:11.948Z,11.10
2018-10-01T01:45:40.035Z,11.06
2018-10-01T01:48:08.127Z,11.08
2018-10-01T01:50:36.206Z,11.10
2018-10-01T01:53:07.942Z,11.00
2018-10-01T01:55:36.063Z,10.97
2018-10-01T01:58:04.130Z,10.92
2018-10-01T02:00:32.198Z,10.97
2018-10-01T02:03:00.287Z,11.02
2018-10-01T02:05:28.402Z,11.06
2018-10-01T02:07:56.505Z,11.12
2018-10-01T02:10:24.627Z,11.18
2018-10-01T02:12:52.738Z,11.19
2018-10-01T02:15:20.839Z,11.16
2018-10-01T02:17:48.937Z,11.13
2018-10-01T02:20:17.043Z,11.04
2018-10-01T02:22:45.142Z,10.88
2018-10-01T02:25:13.227Z,10.85
2018-10-01T02:27:41.325Z,10.83
2018-10-01T02:30:09.428Z,10.74
2018-10-01T02:32:37.535Z,10.80
2018-10-01T02:35:05.662Z,10.93
2018-10-01T02:37:33.743Z,11.01
2018-10-01T02:40:01.840Z,11.05
2018-10-01T02:42:29.950Z,11.08
2018-10-01T02:44:58.073Z,11.06
2018-10-01T02:47:26.167Z,11.08
2018-10-01T02:49:54.254Z,11.09
2018-10-01T02:52:27.687Z,11.16
2018-10-01T02:54:55.762Z,11.23
2018-10-01T02:57:23.850Z,11.14
2018-10-01T02:59:51.932Z,11.17
2018-10-01T03:02:20.030Z,11.22
2018-10-01T03:04:48.111Z,11.30
2018-10-01T03:07:16.246Z,11.23
2018-10-01T03:09:44.342Z,11.23
2018-10-01T03:12:12.437Z,11.16
2018-10-01T03:14:40.530Z,11.13
2018-10-01T03:17:08.603Z,11.17
2018-10-01T03:19:36.700Z,11.20
2018-10-01T03:22:04.837Z,11.15
2018-10-01T03:24:32.911Z,11.06
2018-10-01T03:27:01.015Z,11.04
2018-10-01T03:29:29.110Z,11.02
2018-10-01T03:31:57.189Z,11.00
2018-10-01T03:34:25.289Z,11.00
2018-10-01T03:36:53.380Z,11.01
2018-10-01T03:39:21.473Z,11.00
2018-10-01T03:41:49.596Z,11.02
2018-10-01T03:44:17.724Z,11.02
2018-10-01T03:46:45.802Z,10.98
2018-10-01T03:49:13.890Z,11.00
2018-10-01T03:51:42.011Z,10.99
2018-10-01T03:54:10.097Z,11.07
2018-10-01T03:56:38.213Z,11.09
2018-10-01T03:59:06.377Z,10.94
2018-10-01T04:01:34.580Z,10.90
2018-10-01T04:04:03.874Z,10.85
2018-10-01T04:06:32.045Z,10.93
2018-10-01T04:09:00.246Z,10.95
2018-10-01T04:11:28.365Z,10.99
2018-10-01T04:13:56.536Z,10.90
2018-10-01T04:16:24.724Z,10.90
2018-10-01T04:18:52.857Z,10.89
2018-10-01T04:21:21.158Z,10.83
2018-10-01T04:23:49.343Z,10.83
2018-10-01T04:26:17.615Z,10.78
2018-10-01T04:28:45.873Z,10.79
2018-10-01T04:31:14.061Z,10.82
2018-10-01T04:33:42.263Z,10.82
2018-10-01T04:36:10.392Z,10.80
2018-10-01T04:38:38.752Z,10.82
2018-10-01T04:41:07.311Z,10.80
2018-10-01T04:43:35.416Z,10.82
2018-10-01T04:46:03.596Z,10.87
2018-10-01T04:48:31.722Z,10.80
2018-10-01T04:50:59.879Z,10.70
2018-10-01T04:53:27.959Z,10.57
2018-10-01T04:55:56.064Z,10.51
2018-10-01T04:58:24.482Z,10.44
2018-10-01T05:00:52.458Z,10.47
2018-10-01T05:03:20.554Z,10.45
2018-10-01T05:05:48.663Z,10.46
2018-10-01T05:08:16.747Z,10.42
2018-10-01T05:10:44.826Z,10.40
2018-10-01T05:13:12.927Z,10.49
2018-10-01T05:15:41.061Z,10.48
2018-10-01T05:18:09.188Z,10.39
2018-10-01T05:20:37.279Z,10.39
2018-10-01T05:23:05.380Z,10.43
2018-10-01T05:25:33.499Z,10.48
2018-10-01T05:28:01.608Z,10.55
2018-10-01T05:30:29.686Z,10.49
2018-10-01T05:32:57.849Z,10.51
2018-10-01T05:35:26.007Z,10.50
2018-10-01T05:37:54.168Z,10.42
2018-10-01T05:40:22.183Z,10.44
2018-10-01T05:42:50.299Z,10.46
2018-10-01T05:45:18.418Z,10.38
2018-10-01T05:47:46.543Z,10.33
2018-10-01T05:50:14.671Z,10.27
2018-10-01T05:52:42.857Z,10.30
2018-10-01T05:55:10.935Z,10.32
2018-10-01T05:57:39.043Z,10.31
2018-10-01T06:00:07.186Z,10.30
2018-10-01T06:02:35.292Z,10.35
2018-10-01T06:05:03.417Z,10.32
2018-10-01T06:07:31.579Z,10.34
2018-10-01T06:09:59.679Z,10.47
2018-10-01T06:12:27.782Z,10.38
2018-10-01T06:14:55.892Z,10.23
2018-10-01T06:17:24.033Z,10.24
2018-10-01T06:19:52.953Z,10.29
2018-10-01T06:22:21.114Z,10.28
2018-10-01T06:24:49.523Z,10.23
2018-10-01T06:27:17.945Z,10.29
2018-10-01T06:29:46.193Z,10.33
2018-10-01T06:32:14.856Z,10.43
2018-10-01T06:34:43.230Z,10.46
2018-10-01T06:37:11.335Z,10.59
2018-10-01T06:39:39.423Z,10.67
2018-10-01T06:42:07.536Z,10.71
2018-10-01T06:44:35.647Z,10.71
2018-10-01T06:47:03.771Z,10.77
2018-10-01T06:49:31.879Z,10.77
2018-10-01T06:51:59.979Z,10.72
2018-10-01T06:54:28.081Z,10.76
2018-10-01T06:56:56.713Z,10.75
2018-10-01T06:59:25.408Z,10.72
2018-10-01T07:01:53.682Z,10.68
2018-10-01T07:04:21.773Z,10.74
2018-10-01T07:06:50.112Z,10.80
2018-10-01T07:09:18.822Z,10.79
2018-10-01T07:11:47.340Z,10.86
2018-10-01T07:14:15.459Z,10.79
2018-10-01T07:16:43.591Z,10.86
2018-10-01T07:19:11.701Z,10.90
2018-10-01T07:21:41.615Z,10.88
2018-10-01T07:24:09.728Z,10.88
2018-10-01T07:26:37.876Z,10.87
2018-10-01T07:29:06.085Z,10.94
2018-10-01T07:31:34.258Z,10.98
2018-10-01T07:34:02.382Z,11.13
2018-10-01T07:36:30.499Z,11.07
2018-10-01T07:38:58.600Z,11.04
2018-10-01T07:41:26.689Z,11.11
2018-10-01T07:43:54.819Z,11.19
2018-10-01T07:46:23.090Z,11.34
2018-10-01T07:48:51.080Z,11.26
2018-10-01T07:51:19.176Z,11.28
2018-10-01T07:53:47.286Z,11.52
2018-10-01T07:56:15.667Z,11.64
2018-10-01T07:58:43.760Z,11.69
2018-10-01T08:01:11.902Z,11.50
2018-10-01T08:03:41.176Z,11.52
2018-10-01T08:06:09.299Z,11.71
2018-10-01T08:08:37.426Z,11.90
2018-10-01T08:11:05.572Z,12.06
2018-10-01T08:13:33.716Z,12.18
2018-10-01T08:16:01.839Z,12.31
2018-10-01T08:18:29.935Z,12.47
2018-10-01T08:20:58.039Z,12.49
2018-10-01T08:23:26.176Z,12.61
2018-10-01T08:25:57.354Z,12.49
2018-10-01T08:28:25.467Z,12.53
2018-10-01T08:30:53.554Z,12.71
2018-10-01T08:33:21.669Z,12.62
2018-10-01T08:35:49.764Z,12.76
2018-10-01T08:38:17.975Z,12.92
2018-10-01T08:40:45.971Z,13.11
2018-10-01T08:43:14.074Z,13.28
2018-10-01T08:45:42.135Z,13.43
2018-10-01T08:48:10.917Z,13.34
2018-10-01T08:50:43.279Z,13.52
2018-10-01T08:53:15.651Z,13.27
2018-10-01T08:55:43.679Z,13.20
2018-10-01T08:58:12.003Z,13.04
2018-10-01T09:00:40.123Z,12.85
2018-10-01T09:03:08.326Z,12.95
2018-10-01T09:05:36.759Z,13.04
2018-10-01T09:08:04.867Z,13.24
2018-10-01T09:10:32.948Z,13.41
2018-10-01T09:13:01.097Z,13.55
2018-10-01T09:15:29.268Z,13.69
2018-10-01T09:17:57.364Z,13.54
2018-10-01T09:20:25.507Z,13.37
2018-10-01T09:22:53.591Z,13.57
2018-10-01T09:25:21.678Z,13.28
2018-10-01T09:27:49.759Z,13.63
2018-10-01T09:30:17.885Z,13.74
2018-10-01T09:32:46.036Z,13.38
2018-10-01T09:35:14.163Z,13.03
2018-10-01T09:37:42.278Z,12.97
2018-10-01T09:40:10.494Z,12.71
2018-10-01T09:42:38.525Z,12.74
2018-10-01T09:45:06.667Z,12.59
2018-10-01T09:47:34.785Z,13.07
2018-10-01T09:50:02.937Z,13.48
2018-10-01T09:52:31.030Z,13.46
2018-10-01T09:54:59.088Z,13.28
2018-10-01T09:57:27.183Z,13.26
2018-10-01T09:59:55.286Z,13.48
2018-10-01T10:02:23.403Z,13.78
2018-10-01T10:04:51.586Z,13.76
2018-10-01T10:07:19.710Z,13.97
2018-10-01T10:09:47.857Z,14.14
2018-10-01T10:12:15.940Z,14.27
2018-10-01T10:14:44.016Z,14.24
2018-10-01T10:17:12.099Z,14.02
2018-10-01T10:19:40.248Z,14.03
2018-10-01T10:22:08.343Z,14.06
2018-10-01T10:24:36.454Z,14.46
2018-10-01T10:27:04.550Z,14.53
2018-10-01T10:29:32.679Z,14.76
2018-10-01T10:32:00.815Z,14.62
2018-10-01T10:34:28.878Z,14.57
2018-10-01T10:36:56.951Z,14.29
2018-10-01T10:39:25.067Z,13.83
2018-10-01T10:41:53.162Z,13.78
2018-10-01T10:44:21.251Z,13.49
2018-10-01T10:46:49.327Z,13.18
2018-10-01T10:49:17.442Z,12.75
2018-10-01T10:51:45.545Z,12.23
2018-10-01T10:54:13.667Z,11.74
2018-10-01T10:56:41.771Z,11.10
2018-10-01T10:59:09.858Z,10.96
2018-10-01T11:01:37.911Z,11.07
2018-10-01T11:04:06.040Z,11.10
2018-10-01T11:06:34.121Z,10.93
2018-10-01T11:09:02.205Z,10.85
2018-10-01T11:11:30.286Z,10.80
2018-10-01T11:13:58.465Z,10.72
2018-10-01T11:16:26.507Z,10.66
2018-10-01T11:18:54.791Z,10.59
2018-10-01T11:21:22.863Z,10.69
2018-10-01T11:23:50.870Z,10.48
2018-10-01T11:26:18.973Z,10.41
2018-10-01T11:28:47.190Z,10.50
2018-10-01T11:31:15.295Z,10.08
2018-10-01T11:33:43.830Z,9.96
2018-10-01T11:36:11.926Z,10.07
2018-10-01T11:38:40.043Z,10.15
2018-10-01T11:41:08.398Z,10.21
2018-10-01T11:43:37.418Z,9.90
2018-10-01T11:46:05.503Z,9.76
2018-10-01T11:48:33.633Z,9.66
2018-10-01T11:51:01.880Z,9.61
2018-10-01T11:53:29.960Z,9.56
2018-10-01T11:55:58.051Z,9.46
2018-10-01T11:58:26.145Z,9.49
2018-10-01T12:00:54.232Z,9.41
2018-10-01T12:03:22.380Z,9.60
2018-10-01T12:05:50.396Z,9.64
2018-10-01T12:08:18.468Z,9.67
2018-10-01T12:10:46.539Z,9.73
2018-10-01T12:13:14.787Z,9.84
2018-10-01T12:15:43.030Z,9.99
2018-10-01T12:18:11.121Z,10.03
2018-10-01T12:20:39.259Z,10.15
2018-10-01T12:23:07.359Z,10.27
2018-10-01T12:25:35.534Z,10.37
2018-10-01T12:28:03.882Z,10.44
2018-10-01T12:30:32.034Z,10.46
2018-10-01T12:33:00.125Z,10.48
2018-10-01T12:35:28.180Z,10.46
2018-10-01T12:37:56.301Z,10.52
2018-10-01T12:40:24.444Z,10.43
2018-10-01T12:42:52.547Z,10.52
2018-10-01T12:45:20.821Z,10.62
2018-10-01T12:47:48.738Z,10.56
2018-10-01T12:50:16.892Z,10.60
2018-10-01T12:52:44.936Z,10.63
2018-10-01T12:55:13.051Z,10.60
2018-10-01T13:00:15.728Z,10.49
2018-10-01T13:02:43.849Z,10.64
2018-10-01T13:05:12.062Z,10.72
2018-10-01T13:07:40.097Z,10.64
2018-10-01T13:10:08.174Z,10.57
2018-10-01T13:12:36.296Z,10.65
2018-10-01T13:15:04.407Z,10.83
2018-10-01T13:17:32.506Z,10.93
2018-10-01T13:20:00.575Z,10.91
2018-10-01T13:22:28.699Z,11.01
2018-10-01T13:24:56.846Z,11.05
2018-10-01T13:27:24.899Z,11.21
2018-10-01T13:29:53.055Z,11.29
2018-10-01T13:32:21.189Z,11.41
2018-10-01T13:34:49.299Z,11.69
2018-10-01T13:37:18.048Z,11.75
2018-10-01T13:39:46.170Z,11.85
2018-10-01T13:42:14.423Z,11.87
2018-10-01T13:44:42.360Z,11.88
2018-10-01T13:47:10.455Z,11.78
2018-10-01T13:49:38.642Z,11.71
2018-10-01T13:52:06.792Z,11.53
2018-10-01T13:54:34.882Z,11.67
2018-10-01T13:57:02.933Z,11.52
2018-10-01T13:59:31.003Z,11.01
2018-10-01T14:01:59.121Z,10.42
2018-10-01T14:04:27.212Z,9.44
2018-10-01T14:06:55.328Z,9.12
2018-10-01T14:09:23.336Z,8.96
2018-10-01T14:11:51.439Z,8.93
2018-10-01T14:14:19.529Z,8.91
2018-10-01T14:16:47.588Z,8.93
2018-10-01T14:19:15.768Z,9.02
2018-10-01T14:21:43.767Z,9.15
2018-10-01T14:24:11.831Z,9.19
2018-10-01T14:26:39.919Z,9.31
2018-10-01T14:29:07.999Z,9.29
2018-10-01T14:31:36.115Z,9.43
2018-10-01T14:34:04.205Z,9.61
2018-10-01T14:36:32.323Z,9.68
2018-10-01T14:39:00.378Z,9.82
2018-10-01T14:41:28.487Z,9.91
2018-10-01T14:43:56.582Z,9.93
2018-10-01T14:46:24.654Z,9.87
2018-10-01T14:48:52.714Z,9.84
2018-10-01T14:51:20.892Z,9.98
2018-10-01T14:53:48.910Z,10.11
2018-10-01T14:56:16.979Z,9.95
2018-10-01T14:58:45.062Z,9.97
2018-10-01T15:01:13.139Z,10.11
2018-10-01T15:03:42.224Z,9.92
2018-10-01T15:06:10.302Z,9.99
2018-10-01T15:08:38.295Z,10.09
2018-10-01T15:11:06.391Z,9.93
2018-10-01T15:13:34.485Z,10.01
2018-10-01T15:16:02.562Z,10.07
2018-10-01T15:18:30.672Z,10.09
2018-10-01T15:20:58.734Z,10.08
2018-10-01T15:23:26.823Z,10.16
2018-10-01T15:25:54.921Z,10.13
2018-10-01T15:28:22.999Z,10.10
2018-10-01T15:30:51.090Z,10.02
2018-10-01T15:33:19.154Z,10.05
2018-10-01T15:35:47.262Z,10.02
2018-10-01T15:38:15.382Z,9.98
2018-10-01T15:40:43.446Z,9.88
2018-10-01T15:43:11.522Z,9.89
2018-10-01T15:45:39.641Z,9.87
2018-10-01T15:48:07.828Z,9.86
2018-10-01T15:50:35.912Z,9.74
2018-10-01T15:53:04.004Z,9.68
2018-10-01T15:55:32.081Z,9.69
2018-10-01T15:58:00.251Z,9.78
2018-10-01T16:00:28.351Z,9.81
2018-10-01T16:02:56.465Z,9.74
2018-10-01T16:05:24.655Z,9.67
2018-10-01T16:07:52.832Z,9.70
2018-10-01T16:10:20.894Z,9.71
2018-10-01T16:12:48.994Z,9.73
2018-10-01T16:15:17.114Z,9.72
2018-10-01T16:17:45.222Z,9.77
2018-10-01T16:20:13.324Z,9.74
2018-10-01T16:22:42.185Z,9.84
2018-10-01T16:25:10.932Z,9.77
2018-10-01T16:27:39.697Z,9.78
2018-10-01T16:30:09.014Z,9.77
2018-10-01T16:32:37.643Z,9.72
2018-10-01T16:35:06.561Z,9.68
2018-10-01T16:37:35.289Z,9.62
2018-10-01T16:40:03.957Z,9.56
2018-10-01T16:42:32.678Z,9.55
2018-10-01T16:45:01.584Z,9.57
2018-10-01T16:47:30.308Z,9.49
2018-10-01T16:49:59.060Z,9.32
2018-10-01T16:52:27.196Z,9.34
2018-10-01T16:54:56.391Z,9.31
2018-10-01T16:57:25.237Z,9.32
2018-10-01T16:59:53.358Z,9.24
2018-10-01T17:02:21.518Z,9.18
2018-10-01T17:04:49.646Z,9.19
2018-10-01T17:07:17.763Z,9.19
2018-10-01T17:09:45.841Z,9.13
2018-10-01T17:12:13.939Z,9.02
2018-10-01T17:14:42.103Z,8.91
2018-10-01T17:17:10.286Z,8.94
2018-10-01T17:19:38.582Z,8.88
2018-10-01T17:22:06.916Z,8.88
2018-10-01T17:24:35.318Z,8.78
2018-10-01T17:27:04.360Z,8.82
2018-10-01T17:29:32.520Z,8.79
2018-10-01T17:32:00.673Z,8.67
2018-10-01T17:34:28.762Z,8.56
2018-10-01T17:36:56.852Z,8.54
2018-10-01T17:39:24.996Z,8.49
2018-10-01T17:41:53.100Z,8.43
2018-10-01T17:44:21.275Z,8.28
2018-10-01T17:46:49.410Z,8.28
2018-10-01T17:49:17.559Z,8.37
2018-10-01T17:51:45.825Z,8.45
2018-10-01T17:54:13.994Z,8.40
2018-10-01T17:56:42.240Z,8.48
2018-10-01T17:59:10.378Z,8.43
2018-10-01T18:01:38.497Z,8.36
2018-10-01T18:04:06.590Z,8.35
2018-10-01T18:06:34.650Z,8.36
2018-10-01T18:09:02.752Z,8.29
2018-10-01T18:11:30.853Z,8.12
2018-10-01T18:13:59.008Z,8.20
2018-10-01T18:16:27.055Z,8.08
2018-10-01T18:18:55.115Z,8.20
2018-10-01T18:21:23.191Z,8.19
2018-10-01T18:23:51.312Z,8.14
2018-10-01T18:26:19.327Z,8.15
2018-10-01T18:28:47.403Z,8.09
2018-10-01T18:31:15.750Z,8.07
2018-10-01T18:33:44.635Z,7.93
2018-10-01T18:36:12.852Z,7.84
2018-10-01T18:38:40.889Z,7.79
2018-10-01T18:41:09.270Z,7.77
2018-10-01T18:43:38.719Z,7.88
2018-10-01T18:46:06.763Z,7.83
2018-10-01T18:48:34.868Z,7.83
2018-10-01T18:51:03.023Z,7.79
2018-10-01T18:53:31.095Z,7.68
2018-10-01T18:55:59.171Z,7.67
2018-10-01T18:58:27.253Z,7.53
2018-10-01T19:00:55.319Z,7.46
2018-10-01T19:03:23.387Z,7.39
2018-10-01T19:05:51.534Z,7.37
2018-10-01T19:08:19.599Z,7.42
2018-10-01T19:10:47.631Z,7.31
2018-10-01T19:13:15.711Z,7.28
2018-10-01T19:15:43.762Z,7.14
2018-10-01T19:18:11.890Z,7.10
2018-10-01T19:20:39.971Z,7.14
2018-10-01T19:23:07.998Z,7.10
2018-10-01T19:25:36.106Z,7.12
2018-10-01T19:28:04.224Z,7.15
2018-10-01T19:30:32.382Z,7.16
2018-10-01T19:33:00.436Z,7.08
2018-10-01T19:35:28.481Z,7.18
2018-10-01T19:37:56.599Z,7.24
2018-10-01T19:40:24.895Z,7.23
2018-10-01T19:42:52.973Z,7.23
2018-10-01T19:45:21.074Z,7.23
2018-10-01T19:47:49.103Z,7.23
2018-10-01T19:50:17.246Z,7.21
2018-10-01T19:52:45.337Z,7.22
2018-10-01T19:55:13.396Z,7.29
2018-10-01T19:57:41.517Z,7.25
2018-10-01T20:00:09.687Z,7.18
2018-10-01T20:02:37.711Z,7.23
2018-10-01T20:05:06.317Z,7.23
2018-10-01T20:07:34.379Z,7.20
2018-10-01T20:10:02.528Z,7.22
2018-10-01T20:12:30.547Z,7.16
2018-10-01T20:14:58.701Z,7.19
2018-10-01T20:17:26.744Z,7.20
2018-10-01T20:19:54.838Z,7.18
2018-10-01T20:22:22.997Z,7.12
2018-10-01T20:24:51.094Z,7.13
2018-10-01T20:27:19.111Z,7.10
2018-10-01T20:29:47.283Z,7.03
2018-10-01T20:32:15.250Z,7.03
2018-10-01T20:34:43.279Z,7.08
2018-10-01T20:37:11.358Z,7.08
2018-10-01T20:39:39.437Z,7.07
2018-10-01T20:42:07.599Z,6.97
2018-10-01T20:44:35.617Z,6.99
2018-10-01T20:47:03.753Z,7.02
2018-10-01T20:49:31.782Z,6.93
2018-10-01T20:51:59.923Z,7.02
2018-10-01T20:54:28.067Z,7.04
2018-10-01T20:56:56.157Z,7.05
2018-10-01T20:59:24.308Z,7.03
2018-10-01T21:01:52.344Z,7.04
2018-10-01T21:04:20.419Z,6.92
2018-10-01T21:06:48.524Z,7.02
2018-10-01T21:09:16.623Z,6.94
2018-10-01T21:11:44.725Z,6.97
2018-10-01T21:14:12.819Z,6.93
2018-10-01T21:16:40.892Z,6.96
2018-10-01T21:19:08.955Z,7.00
2018-10-01T21:21:37.026Z,6.99
2018-10-01T21:24:05.859Z,6.90
2018-10-01T21:26:33.962Z,6.93
2018-10-01T21:29:02.026Z,6.74
2018-10-01T21:31:30.090Z,6.79
2018-10-01T21:33:58.185Z,6.80
2018-10-01T21:36:26.231Z,6.78
2018-10-01T21:38:54.300Z,6.73
2018-10-01T21:41:22.370Z,6.69
2018-10-01T21:43:50.451Z,6.73
2018-10-01T21:46:18.531Z,6.65
2018-10-01T21:48:46.603Z,6.67
2018-10-01T21:51:14.678Z,6.71
2018-10-01T21:53:43.369Z,6.69
2018-10-01T21:56:11.468Z,6.70
2018-10-01T21:58:39.539Z,6.71
2018-10-01T22:01:13.255Z,6.65
2018-10-01T22:03:41.323Z,6.64
2018-10-01T22:06:09.418Z,6.55
2018-10-01T22:08:37.486Z,6.59
2018-10-01T22:11:05.559Z,6.66
2018-10-01T22:13:33.619Z,6.64
2018-10-01T22:16:01.687Z,6.62
2018-10-01T22:18:29.809Z,6.63
2018-10-01T22:20:57.878Z,6.62
2018-10-01T22:23:26.067Z,6.49
2018-10-01T22:25:54.138Z,6.55
2018-10-01T22:28:22.206Z,6.62
2018-10-01T22:30:50.357Z,6.58
2018-10-01T22:33:18.441Z,6.61
2018-10-01T22:35:46.492Z,6.64
2018-10-01T22:38:14.579Z,6.58
2018-10-01T22:40:42.660Z,6.58
2018-10-01T22:43:10.713Z,6.47
2018-10-01T22:45:38.779Z,6.42
2018-10-01T22:48:06.859Z,6.47
2018-10-01T22:50:34.935Z,6.48
2018-10-01T22:53:02.986Z,6.43
2018-10-01T22:55:31.151Z,6.39
2018-10-01T22:57:59.218Z,6.37
2018-10-01T23:00:28.024Z,6.37
2018-10-01T23:02:56.189Z,6.46
2018-10-01T23:05:24.362Z,6.58
2018-10-01T23:07:52.446Z,6.53
2018-10-01T23:10:20.542Z,6.49
2018-10-01T23:12:48.826Z,6.51
2018-10-01T23:15:16.909Z,6.41
2018-10-01T23:17:45.754Z,6.51
2018-10-01T23:20:13.819Z,6.53
2018-10-01T23:22:41.879Z,6.57
2018-10-01T23:25:09.976Z,6.58
2018-10-01T23:27:38.020Z,6.50
2018-10-01T23:30:06.103Z,6.57
2018-10-01T23:32:34.123Z,6.56
2018-10-01T23:35:02.203Z,6.54
2018-10-01T23:37:30.315Z,6.50
2018-10-01T23:39:58.377Z,6.54
2018-10-01T23:42:26.478Z,6.53
2018-10-01T23:44:54.529Z,6.51
2018-10-01T23:47:22.586Z,6.53
2018-10-01T23:49:50.643Z,6.54
2018-10-01T23:52:18.738Z,6.55
2018-10-01T23:54:47.610Z,6.50
2018-10-01T23:57:15.689Z,6.53
2018-10-01T23:59:43.742Z,6.53
